sensor_id;sensor_type;location;lat;lon;timestamp;temperature;humidity
17774;DHT22;9011;33.236;-97.118;2024-01-30T19:33:17;23.10;99.90
17774;DHT22;9011;33.236;-97.118;2024-01-30T19:35:44;23.20;98.00
17774;DHT22;9011;33.236;-97.118;2024-01-30T19:38:13;23.10;97.40
17774;DHT22;9011;33.236;-97.118;2024-01-30T19:40:42;23.20;97.20
17774;DHT22;9011;33.236;-97.118;2024-01-30T19:43:11;23.10;97.70
17774;DHT22;9011;33.236;-97.118;2024-01-30T19:45:38;23.40;93.50
17774;DHT22;9011;33.236;-97.118;2024-01-30T19:48:06;23.40;92.20
17774;DHT22;9011;33.236;-97.118;2024-01-30T19:50:34;23.40;91.20
17774;DHT22;9011;33.236;-97.118;2024-01-30T19:53:02;23.40;92.00
17774;DHT22;9011;33.236;-97.118;2024-01-30T19:55:30;23.50;91.60
17774;DHT22;9011;33.236;-97.118;2024-01-30T19:57:58;23.60;92.30
17774;DHT22;9011;33.236;-97.118;2024-01-30T20:00:25;23.60;91.20
17774;DHT22;9011;33.236;-97.118;2024-01-30T20:02:53;23.70;90.40
17774;DHT22;9011;33.236;-97.118;2024-01-30T20:05:20;23.60;90.40
17774;DHT22;9011;33.236;-97.118;2024-01-30T20:07:48;23.70;90.10
17774;DHT22;9011;33.236;-97.118;2024-01-30T20:10:16;23.70;90.30
17774;DHT22;9011;33.236;-97.118;2024-01-30T20:12:44;23.90;90.40
17774;DHT22;9011;33.236;-97.118;2024-01-30T20:15:12;24.00;90.90
17774;DHT22;9011;33.236;-97.118;2024-01-30T20:17:40;24.00;90.50
17774;DHT22;9011;33.236;-97.118;2024-01-30T20:20:10;24.00;88.90
17774;DHT22;9011;33.236;-97.118;2024-01-30T20:22:38;24.30;90.50
17774;DHT22;9011;33.236;-97.118;2024-01-30T20:25:06;24.20;90.20
17774;DHT22;9011;33.236;-97.118;2024-01-30T20:27:34;24.30;91.10
17774;DHT22;9011;33.236;-97.118;2024-01-30T20:30:04;24.40;89.60
17774;DHT22;9011;33.236;-97.118;2024-01-30T20:32:31;24.40;88.90
17774;DHT22;9011;33.236;-97.118;2024-01-30T20:34:59;24.40;90.30
17774;DHT22;9011;33.236;-97.118;2024-01-30T20:37:27;24.20;90.40
17774;DHT22;9011;33.236;-97.118;2024-01-30T20:39:54;24.20;90.20
17774;DHT22;9011;33.236;-97.118;2024-01-30T20:42:22;24.30;90.30
17774;DHT22;9011;33.236;-97.118;2024-01-30T20:44:50;24.40;90.00
17774;DHT22;9011;33.236;-97.118;2024-01-30T20:47:18;24.50;90.20
17774;DHT22;9011;33.236;-97.118;2024-01-30T20:49:46;24.50;89.30
17774;DHT22;9011;33.236;-97.118;2024-01-30T20:52:14;24.50;89.00
17774;DHT22;9011;33.236;-97.118;2024-01-30T20:54:41;24.70;89.90
17774;DHT22;9011;33.236;-97.118;2024-01-30T20:57:09;24.80;89.60
17774;DHT22;9011;33.236;-97.118;2024-01-30T20:59:36;24.80;88.20
17774;DHT22;9011;33.236;-97.118;2024-01-30T21:02:04;24.60;88.60
17774;DHT22;9011;33.236;-97.118;2024-01-30T21:04:33;24.60;90.30
17774;DHT22;9011;33.236;-97.118;2024-01-30T21:07:00;24.60;89.70
17774;DHT22;9011;33.236;-97.118;2024-01-30T21:09:28;24.50;90.10
17774;DHT22;9011;33.236;-97.118;2024-01-30T21:11:56;24.60;87.80
17774;DHT22;9011;33.236;-97.118;2024-01-30T21:14:23;24.30;88.30
17774;DHT22;9011;33.236;-97.118;2024-01-30T21:16:51;24.40;89.20
17774;DHT22;9011;33.236;-97.118;2024-01-30T21:19:18;24.20;87.90
17774;DHT22;9011;33.236;-97.118;2024-01-30T21:21:47;24.40;88.40
17774;DHT22;9011;33.236;-97.118;2024-01-30T21:24:14;24.30;86.50
17774;DHT22;9011;33.236;-97.118;2024-01-30T21:26:42;24.20;87.60
17774;DHT22;9011;33.236;-97.118;2024-01-30T21:29:09;24.20;88.50
17774;DHT22;9011;33.236;-97.118;2024-01-30T21:31:37;24.40;90.00
17774;DHT22;9011;33.236;-97.118;2024-01-30T21:34:05;24.50;90.00
17774;DHT22;9011;33.236;-97.118;2024-01-30T21:36:32;24.40;89.80
17774;DHT22;9011;33.236;-97.118;2024-01-30T21:39:01;24.40;89.40
17774;DHT22;9011;33.236;-97.118;2024-01-30T21:41:29;24.40;89.10
17774;DHT22;9011;33.236;-97.118;2024-01-30T21:43:57;24.60;90.50
17774;DHT22;9011;33.236;-97.118;2024-01-30T21:46:25;24.50;90.80
17774;DHT22;9011;33.236;-97.118;2024-01-30T21:48:53;24.50;90.30
17774;DHT22;9011;33.236;-97.118;2024-01-30T21:51:20;24.40;89.80
17774;DHT22;9011;33.236;-97.118;2024-01-30T21:53:48;24.60;90.40
17774;DHT22;9011;33.236;-97.118;2024-01-30T21:56:17;24.50;90.70
17774;DHT22;9011;33.236;-97.118;2024-01-30T21:58:44;24.30;91.50
17774;DHT22;9011;33.236;-97.118;2024-01-30T22:01:14;24.40;91.50
17774;DHT22;9011;33.236;-97.118;2024-01-30T22:03:42;24.40;91.60
17774;DHT22;9011;33.236;-97.118;2024-01-30T22:06:12;24.40;91.20
17774;DHT22;9011;33.236;-97.118;2024-01-30T22:08:44;24.40;91.90
17774;DHT22;9011;33.236;-97.118;2024-01-30T22:11:12;24.30;91.80
17774;DHT22;9011;33.236;-97.118;2024-01-30T22:13:40;23.90;92.00
17774;DHT22;9011;33.236;-97.118;2024-01-30T22:16:08;24.00;92.00
17774;DHT22;9011;33.236;-97.118;2024-01-30T22:18:35;24.10;92.10
17774;DHT22;9011;33.236;-97.118;2024-01-30T22:21:04;24.00;91.60
17774;DHT22;9011;33.236;-97.118;2024-01-30T22:23:33;24.00;92.00
17774;DHT22;9011;33.236;-97.118;2024-01-30T22:26:01;24.00;92.10
17774;DHT22;9011;33.236;-97.118;2024-01-30T22:28:29;23.90;92.10
17774;DHT22;9011;33.236;-97.118;2024-01-30T22:30:57;23.80;92.50
17774;DHT22;9011;33.236;-97.118;2024-01-30T22:33:25;23.60;92.20
17774;DHT22;9011;33.236;-97.118;2024-01-30T22:35:52;23.80;92.40
17774;DHT22;9011;33.236;-97.118;2024-01-30T22:38:20;23.70;92.80
17774;DHT22;9011;33.236;-97.118;2024-01-30T22:40:48;23.40;92.10
17774;DHT22;9011;33.236;-97.118;2024-01-30T22:43:16;23.50;92.30
17774;DHT22;9011;33.236;-97.118;2024-01-30T22:45:44;23.40;92.30
17774;DHT22;9011;33.236;-97.118;2024-01-30T22:48:12;23.40;92.10
17774;DHT22;9011;33.236;-97.118;2024-01-30T22:50:40;23.50;92.40
17774;DHT22;9011;33.236;-97.118;2024-01-30T22:53:10;23.30;92.20
17774;DHT22;9011;33.236;-97.118;2024-01-30T22:55:37;23.00;92.10
17774;DHT22;9011;33.236;-97.118;2024-01-30T22:58:05;23.00;92.80
17774;DHT22;9011;33.236;-97.118;2024-01-30T23:00:33;22.90;92.90
17774;DHT22;9011;33.236;-97.118;2024-01-30T23:03:00;22.80;92.60
17774;DHT22;9011;33.236;-97.118;2024-01-30T23:05:29;22.70;92.50
17774;DHT22;9011;33.236;-97.118;2024-01-30T23:07:57;22.70;92.70
17774;DHT22;9011;33.236;-97.118;2024-01-30T23:10:24;22.60;92.30
17774;DHT22;9011;33.236;-97.118;2024-01-30T23:12:52;22.40;92.40
17774;DHT22;9011;33.236;-97.118;2024-01-30T23:15:19;22.40;92.40
17774;DHT22;9011;33.236;-97.118;2024-01-30T23:17:47;22.30;92.50
17774;DHT22;9011;33.236;-97.118;2024-01-30T23:20:15;22.20;92.90
17774;DHT22;9011;33.236;-97.118;2024-01-30T23:25:11;22.10;98.60
17774;DHT22;9011;33.236;-97.118;2024-01-30T23:27:38;21.90;93.30
17774;DHT22;9011;33.236;-97.118;2024-01-30T23:30:07;21.90;94.00
17774;DHT22;9011;33.236;-97.118;2024-01-30T23:32:36;21.80;94.30
17774;DHT22;9011;33.236;-97.118;2024-01-30T23:35:05;21.80;94.50
17774;DHT22;9011;33.236;-97.118;2024-01-30T23:37:33;21.60;94.70
17774;DHT22;9011;33.236;-97.118;2024-01-30T23:40:02;21.60;94.60
17774;DHT22;9011;33.236;-97.118;2024-01-30T23:42:31;21.40;94.70
17774;DHT22;9011;33.236;-97.118;2024-01-30T23:44:58;21.30;94.70
17774;DHT22;9011;33.236;-97.118;2024-01-30T23:47:26;21.10;95.10
17774;DHT22;9011;33.236;-97.118;2024-01-30T23:49:53;21.00;95.70
17774;DHT22;9011;33.236;-97.118;2024-01-30T23:52:21;20.70;96.20
17774;DHT22;9011;33.236;-97.118;2024-01-30T23:54:49;20.60;96.30
17774;DHT22;9011;33.236;-97.118;2024-01-30T23:57:17;20.40;96.50
17774;DHT22;9011;33.236;-97.118;2024-01-30T23:59:45;20.20;97.30
